sensor_id;sensor_type;location;lat;lon;timestamp;P1;durP1;ratioP1;P2;durP2;ratioP2
73264;SDS011;61493;51.008;14.088;2023-09-30T00:01:08;11.73;;;5.63;;
73264;SDS011;61493;51.008;14.088;2023-09-30T00:03:34;13.00;;;6.07;;
73264;SDS011;61493;51.008;14.088;2023-09-30T00:05:59;12.05;;;5.38;;
73264;SDS011;61493;51.008;14.088;2023-09-30T00:08:24;15.13;;;6.10;;
73264;SDS011;61493;51.008;14.088;2023-09-30T00:10:50;13.43;;;4.47;;
73264;SDS011;61493;51.008;14.088;2023-09-30T00:13:15;9.40;;;4.70;;
73264;SDS011;61493;51.008;14.088;2023-09-30T00:15:41;12.57;;;4.90;;
73264;SDS011;61493;51.008;14.088;2023-09-30T00:18:06;23.05;;;7.65;;
73264;SDS011;61493;51.008;14.088;2023-09-30T00:20:32;11.10;;;4.95;;
73264;SDS011;61493;51.008;14.088;2023-09-30T00:22:57;15.50;;;6.60;;
73264;SDS011;61493;51.008;14.088;2023-09-30T00:25:22;12.10;;;5.18;;
73264;SDS011;61493;51.008;14.088;2023-09-30T00:27:48;10.48;;;5.03;;
73264;SDS011;61493;51.008;14.088;2023-09-30T00:30:13;14.32;;;5.80;;
73264;SDS011;61493;51.008;14.088;2023-09-30T00:32:38;13.77;;;5.18;;
73264;SDS011;61493;51.008;14.088;2023-09-30T00:35:04;10.43;;;5.43;;
73264;SDS011;61493;51.008;14.088;2023-09-30T00:37:30;10.07;;;4.57;;
73264;SDS011;61493;51.008;14.088;2023-09-30T00:39:55;9.73;;;4.22;;
73264;SDS011;61493;51.008;14.088;2023-09-30T00:42:20;11.90;;;4.53;;
73264;SDS011;61493;51.008;14.088;2023-09-30T00:44:46;10.43;;;4.15;;
73264;SDS011;61493;51.008;14.088;2023-09-30T00:47:11;12.40;;;4.68;;
73264;SDS011;61493;51.008;14.088;2023-09-30T00:49:36;9.88;;;4.10;;
73264;SDS011;61493;51.008;14.088;2023-09-30T00:52:01;8.57;;;3.08;;
73264;SDS011;61493;51.008;14.088;2023-09-30T00:54:27;13.00;;;4.40;;
73264;SDS011;61493;51.008;14.088;2023-09-30T00:56:53;7.32;;;2.90;;
73264;SDS011;61493;51.008;14.088;2023-09-30T00:59:21;6.15;;;3.25;;
73264;SDS011;61493;51.008;14.088;2023-09-30T01:01:46;7.57;;;3.45;;
73264;SDS011;61493;51.008;14.088;2023-09-30T01:04:12;6.70;;;3.97;;
73264;SDS011;61493;51.008;14.088;2023-09-30T01:06:37;7.80;;;3.33;;
73264;SDS011;61493;51.008;14.088;2023-09-30T01:09:02;7.90;;;3.90;;
73264;SDS011;61493;51.008;14.088;2023-09-30T01:11:28;7.18;;;3.38;;
73264;SDS011;61493;51.008;14.088;2023-09-30T01:13:53;8.90;;;4.70;;
73264;SDS011;61493;51.008;14.088;2023-09-30T01:16:18;4.38;;;2.63;;
73264;SDS011;61493;51.008;14.088;2023-09-30T01:18:43;5.25;;;2.42;;
73264;SDS011;61493;51.008;14.088;2023-09-30T01:21:09;4.50;;;2.63;;
73264;SDS011;61493;51.008;14.088;2023-09-30T01:23:34;4.43;;;2.55;;
73264;SDS011;61493;51.008;14.088;2023-09-30T01:26:04;6.45;;;2.60;;
73264;SDS011;61493;51.008;14.088;2023-09-30T01:28:30;8.05;;;2.22;;
73264;SDS011;61493;51.008;14.088;2023-09-30T01:30:56;2.92;;;1.45;;
73264;SDS011;61493;51.008;14.088;2023-09-30T01:33:22;4.63;;;0.85;;
73264;SDS011;61493;51.008;14.088;2023-09-30T01:35:47;3.70;;;1.05;;
73264;SDS011;61493;51.008;14.088;2023-09-30T01:38:12;1.93;;;1.00;;
73264;SDS011;61493;51.008;14.088;2023-09-30T01:40:37;1.45;;;0.90;;
73264;SDS011;61493;51.008;14.088;2023-09-30T01:43:03;1.30;;;0.70;;
73264;SDS011;61493;51.008;14.088;2023-09-30T01:45:28;4.15;;;0.88;;
73264;SDS011;61493;51.008;14.088;2023-09-30T01:53:04;1.58;;;0.70;;
73264;SDS011;61493;51.008;14.088;2023-09-30T01:55:31;1.45;;;0.75;;
73264;SDS011;61493;51.008;14.088;2023-09-30T01:57:56;1.30;;;0.70;;
73264;SDS011;61493;51.008;14.088;2023-09-30T02:00:21;1.87;;;0.90;;
73264;SDS011;61493;51.008;14.088;2023-09-30T02:02:46;4.53;;;0.80;;
73264;SDS011;61493;51.008;14.088;2023-09-30T02:05:12;3.20;;;0.87;;
73264;SDS011;61493;51.008;14.088;2023-09-30T02:07:37;2.45;;;0.75;;
73264;SDS011;61493;51.008;14.088;2023-09-30T02:10:02;4.95;;;0.98;;
73264;SDS011;61493;51.008;14.088;2023-09-30T02:12:28;1.98;;;0.82;;
73264;SDS011;61493;51.008;14.088;2023-09-30T02:14:53;2.80;;;0.90;;
73264;SDS011;61493;51.008;14.088;2023-09-30T02:17:18;3.53;;;1.00;;
73264;SDS011;61493;51.008;14.088;2023-09-30T02:19:44;4.43;;;0.70;;
73264;SDS011;61493;51.008;14.088;2023-09-30T02:22:09;10.45;;;1.45;;
73264;SDS011;61493;51.008;14.088;2023-09-30T02:24:34;1.63;;;0.90;;
73264;SDS011;61493;51.008;14.088;2023-09-30T02:26:59;2.28;;;1.05;;
73264;SDS011;61493;51.008;14.088;2023-09-30T02:29:25;1.55;;;1.00;;
73264;SDS011;61493;51.008;14.088;2023-09-30T02:31:50;3.10;;;1.25;;
73264;SDS011;61493;51.008;14.088;2023-09-30T02:34:16;2.58;;;1.13;;
73264;SDS011;61493;51.008;14.088;2023-09-30T02:36:41;2.72;;;1.40;;
73264;SDS011;61493;51.008;14.088;2023-09-30T02:39:07;2.58;;;1.08;;
73264;SDS011;61493;51.008;14.088;2023-09-30T02:41:34;5.03;;;1.52;;
73264;SDS011;61493;51.008;14.088;2023-09-30T02:43:59;1.80;;;1.05;;
73264;SDS011;61493;51.008;14.088;2023-09-30T02:46:24;3.28;;;1.35;;
73264;SDS011;61493;51.008;14.088;2023-09-30T02:48:53;3.63;;;1.30;;
73264;SDS011;61493;51.008;14.088;2023-09-30T02:51:18;3.13;;;1.17;;
73264;SDS011;61493;51.008;14.088;2023-09-30T02:53:43;4.68;;;1.70;;
73264;SDS011;61493;51.008;14.088;2023-09-30T02:56:09;5.40;;;1.30;;
73264;SDS011;61493;51.008;14.088;2023-09-30T02:58:35;4.13;;;1.13;;
73264;SDS011;61493;51.008;14.088;2023-09-30T03:01:00;3.25;;;1.40;;
73264;SDS011;61493;51.008;14.088;2023-09-30T03:03:26;2.60;;;1.45;;
73264;SDS011;61493;51.008;14.088;2023-09-30T03:05:52;2.95;;;1.83;;
73264;SDS011;61493;51.008;14.088;2023-09-30T03:08:17;3.65;;;1.60;;
73264;SDS011;61493;51.008;14.088;2023-09-30T03:10:42;3.08;;;1.45;;
73264;SDS011;61493;51.008;14.088;2023-09-30T03:13:08;2.70;;;1.30;;
73264;SDS011;61493;51.008;14.088;2023-09-30T03:15:34;6.15;;;1.60;;
73264;SDS011;61493;51.008;14.088;2023-09-30T03:18:00;4.40;;;1.60;;
73264;SDS011;61493;51.008;14.088;2023-09-30T03:20:25;4.43;;;1.52;;
73264;SDS011;61493;51.008;14.088;2023-09-30T03:22:50;3.80;;;1.92;;
73264;SDS011;61493;51.008;14.088;2023-09-30T03:25:16;3.97;;;1.63;;
73264;SDS011;61493;51.008;14.088;2023-09-30T03:27:43;3.05;;;1.45;;
73264;SDS011;61493;51.008;14.088;2023-09-30T03:30:08;6.38;;;1.55;;
73264;SDS011;61493;51.008;14.088;2023-09-30T03:32:34;5.13;;;1.60;;
73264;SDS011;61493;51.008;14.088;2023-09-30T03:35:01;4.80;;;1.60;;
73264;SDS011;61493;51.008;14.088;2023-09-30T03:37:27;7.63;;;1.90;;
73264;SDS011;61493;51.008;14.088;2023-09-30T03:39:55;6.22;;;1.55;;
73264;SDS011;61493;51.008;14.088;2023-09-30T03:42:20;4.85;;;1.70;;
73264;SDS011;61493;51.008;14.088;2023-09-30T03:44:46;6.10;;;2.45;;
73264;SDS011;61493;51.008;14.088;2023-09-30T03:47:13;4.32;;;1.90;;
73264;SDS011;61493;51.008;14.088;2023-09-30T03:49:38;5.03;;;1.60;;
73264;SDS011;61493;51.008;14.088;2023-09-30T03:52:04;5.65;;;2.60;;
73264;SDS011;61493;51.008;14.088;2023-09-30T03:54:29;5.35;;;1.70;;
73264;SDS011;61493;51.008;14.088;2023-09-30T03:56:55;6.22;;;2.08;;
73264;SDS011;61493;51.008;14.088;2023-09-30T03:59:20;3.70;;;1.73;;
73264;SDS011;61493;51.008;14.088;2023-09-30T04:01:45;5.28;;;1.90;;
73264;SDS011;61493;51.008;14.088;2023-09-30T04:04:12;5.13;;;2.75;;
73264;SDS011;61493;51.008;14.088;2023-09-30T04:06:37;4.75;;;1.92;;
73264;SDS011;61493;51.008;14.088;2023-09-30T04:09:04;4.60;;;1.70;;
73264;SDS011;61493;51.008;14.088;2023-09-30T04:11:34;5.40;;;1.80;;
73264;SDS011;61493;51.008;14.088;2023-09-30T04:14:00;6.05;;;1.83;;
73264;SDS011;61493;51.008;14.088;2023-09-30T04:16:25;6.57;;;2.65;;
73264;SDS011;61493;51.008;14.088;2023-09-30T04:18:54;5.05;;;2.25;;
73264;SDS011;61493;51.008;14.088;2023-09-30T04:21:19;5.25;;;2.10;;
73264;SDS011;61493;51.008;14.088;2023-09-30T04:23:44;3.55;;;1.77;;
73264;SDS011;61493;51.008;14.088;2023-09-30T04:26:11;5.30;;;1.73;;
73264;SDS011;61493;51.008;14.088;2023-09-30T04:28:36;7.30;;;1.55;;
73264;SDS011;61493;51.008;14.088;2023-09-30T04:31:01;3.78;;;1.67;;
73264;SDS011;61493;51.008;14.088;2023-09-30T04:33:28;8.55;;;2.78;;
73264;SDS011;61493;51.008;14.088;2023-09-30T04:35:53;4.93;;;2.23;;
73264;SDS011;61493;51.008;14.088;2023-09-30T04:38:18;6.53;;;2.30;;
73264;SDS011;61493;51.008;14.088;2023-09-30T04:40:44;3.67;;;1.75;;
73264;SDS011;61493;51.008;14.088;2023-09-30T04:43:09;7.20;;;2.30;;
73264;SDS011;61493;51.008;14.088;2023-09-30T04:45:35;6.00;;;2.17;;
73264;SDS011;61493;51.008;14.088;2023-09-30T04:48:00;7.05;;;1.95;;
73264;SDS011;61493;51.008;14.088;2023-09-30T04:50:27;5.30;;;2.17;;
73264;SDS011;61493;51.008;14.088;2023-09-30T04:52:52;8.40;;;2.30;;
73264;SDS011;61493;51.008;14.088;2023-09-30T04:55:18;5.35;;;2.15;;
73264;SDS011;61493;51.008;14.088;2023-09-30T04:57:44;4.35;;;1.70;;
73264;SDS011;61493;51.008;14.088;2023-09-30T05:00:11;8.98;;;1.95;;
73264;SDS011;61493;51.008;14.088;2023-09-30T05:02:38;6.30;;;2.42;;
73264;SDS011;61493;51.008;14.088;2023-09-30T05:05:03;6.70;;;2.20;;
73264;SDS011;61493;51.008;14.088;2023-09-30T05:07:31;8.63;;;2.83;;
73264;SDS011;61493;51.008;14.088;2023-09-30T05:09:57;4.07;;;1.63;;
73264;SDS011;61493;51.008;14.088;2023-09-30T05:12:22;8.85;;;1.95;;
73264;SDS011;61493;51.008;14.088;2023-09-30T05:14:48;7.38;;;1.75;;
73264;SDS011;61493;51.008;14.088;2023-09-30T05:17:13;8.98;;;2.60;;
73264;SDS011;61493;51.008;14.088;2023-09-30T05:19:38;5.22;;;1.98;;
73264;SDS011;61493;51.008;14.088;2023-09-30T05:22:03;8.57;;;1.92;;
73264;SDS011;61493;51.008;14.088;2023-09-30T05:24:30;6.38;;;1.98;;
73264;SDS011;61493;51.008;14.088;2023-09-30T05:26:55;7.00;;;1.92;;
73264;SDS011;61493;51.008;14.088;2023-09-30T05:29:20;10.60;;;1.98;;
73264;SDS011;61493;51.008;14.088;2023-09-30T05:31:46;5.25;;;1.90;;
73264;SDS011;61493;51.008;14.088;2023-09-30T05:34:12;5.97;;;2.50;;
73264;SDS011;61493;51.008;14.088;2023-09-30T05:36:38;10.63;;;2.33;;
73264;SDS011;61493;51.008;14.088;2023-09-30T05:39:03;5.93;;;1.90;;
73264;SDS011;61493;51.008;14.088;2023-09-30T05:41:29;10.10;;;2.38;;
73264;SDS011;61493;51.008;14.088;2023-09-30T05:43:55;5.88;;;2.28;;
73264;SDS011;61493;51.008;14.088;2023-09-30T05:46:20;8.43;;;2.17;;
73264;SDS011;61493;51.008;14.088;2023-09-30T05:48:46;11.25;;;2.60;;
73264;SDS011;61493;51.008;14.088;2023-09-30T05:51:11;7.22;;;2.13;;
73264;SDS011;61493;51.008;14.088;2023-09-30T05:53:40;5.85;;;2.22;;
73264;SDS011;61493;51.008;14.088;2023-09-30T05:56:06;10.93;;;2.63;;
73264;SDS011;61493;51.008;14.088;2023-09-30T05:58:32;7.57;;;3.30;;
73264;SDS011;61493;51.008;14.088;2023-09-30T06:00:57;8.00;;;2.70;;
73264;SDS011;61493;51.008;14.088;2023-09-30T06:03:22;8.40;;;2.28;;
73264;SDS011;61493;51.008;14.088;2023-09-30T06:05:47;8.13;;;2.55;;
73264;SDS011;61493;51.008;14.088;2023-09-30T06:08:13;10.30;;;2.40;;
73264;SDS011;61493;51.008;14.088;2023-09-30T06:10:42;7.50;;;2.20;;
73264;SDS011;61493;51.008;14.088;2023-09-30T06:13:08;9.13;;;1.98;;
73264;SDS011;61493;51.008;14.088;2023-09-30T06:15:33;7.60;;;2.00;;
73264;SDS011;61493;51.008;14.088;2023-09-30T06:17:59;6.15;;;2.08;;
73264;SDS011;61493;51.008;14.088;2023-09-30T06:20:26;10.30;;;2.30;;
73264;SDS011;61493;51.008;14.088;2023-09-30T06:22:51;7.95;;;1.85;;
73264;SDS011;61493;51.008;14.088;2023-09-30T06:25:19;12.90;;;2.90;;
73264;SDS011;61493;51.008;14.088;2023-09-30T06:27:45;6.10;;;1.85;;
73264;SDS011;61493;51.008;14.088;2023-09-30T06:30:11;6.57;;;1.73;;
73264;SDS011;61493;51.008;14.088;2023-09-30T06:32:36;8.98;;;2.45;;
73264;SDS011;61493;51.008;14.088;2023-09-30T06:35:02;6.00;;;1.88;;
73264;SDS011;61493;51.008;14.088;2023-09-30T06:37:28;5.25;;;2.00;;
73264;SDS011;61493;51.008;14.088;2023-09-30T06:39:54;9.38;;;2.20;;
73264;SDS011;61493;51.008;14.088;2023-09-30T06:42:20;8.65;;;2.17;;
73264;SDS011;61493;51.008;14.088;2023-09-30T06:44:46;9.25;;;2.40;;
73264;SDS011;61493;51.008;14.088;2023-09-30T06:47:11;9.13;;;2.47;;
73264;SDS011;61493;51.008;14.088;2023-09-30T06:49:37;10.13;;;2.42;;
73264;SDS011;61493;51.008;14.088;2023-09-30T06:52:02;9.55;;;2.88;;
73264;SDS011;61493;51.008;14.088;2023-09-30T06:54:28;8.00;;;2.95;;
73264;SDS011;61493;51.008;14.088;2023-09-30T06:56:53;10.70;;;2.40;;
73264;SDS011;61493;51.008;14.088;2023-09-30T06:59:19;8.30;;;2.30;;
73264;SDS011;61493;51.008;14.088;2023-09-30T07:01:45;11.05;;;2.90;;
73264;SDS011;61493;51.008;14.088;2023-09-30T07:04:10;11.07;;;2.63;;
73264;SDS011;61493;51.008;14.088;2023-09-30T07:06:36;11.55;;;2.85;;
73264;SDS011;61493;51.008;14.088;2023-09-30T07:09:02;8.85;;;2.72;;
73264;SDS011;61493;51.008;14.088;2023-09-30T07:11:27;9.23;;;2.90;;
73264;SDS011;61493;51.008;14.088;2023-09-30T07:13:54;5.88;;;2.35;;
73264;SDS011;61493;51.008;14.088;2023-09-30T07:16:19;11.48;;;2.63;;
73264;SDS011;61493;51.008;14.088;2023-09-30T07:18:44;12.98;;;3.90;;
73264;SDS011;61493;51.008;14.088;2023-09-30T07:21:09;6.33;;;2.97;;
73264;SDS011;61493;51.008;14.088;2023-09-30T07:23:35;8.15;;;3.33;;
73264;SDS011;61493;51.008;14.088;2023-09-30T07:26:03;6.22;;;2.30;;
73264;SDS011;61493;51.008;14.088;2023-09-30T07:28:29;9.77;;;2.63;;
73264;SDS011;61493;51.008;14.088;2023-09-30T07:30:55;7.97;;;2.92;;
73264;SDS011;61493;51.008;14.088;2023-09-30T07:33:21;10.32;;;2.90;;
73264;SDS011;61493;51.008;14.088;2023-09-30T07:35:48;9.32;;;2.33;;
73264;SDS011;61493;51.008;14.088;2023-09-30T07:38:14;8.82;;;2.45;;
73264;SDS011;61493;51.008;14.088;2023-09-30T07:40:39;10.63;;;2.63;;
73264;SDS011;61493;51.008;14.088;2023-09-30T07:43:05;4.10;;;2.00;;
73264;SDS011;61493;51.008;14.088;2023-09-30T07:45:30;9.37;;;1.90;;
73264;SDS011;61493;51.008;14.088;2023-09-30T07:47:56;10.75;;;2.53;;
73264;SDS011;61493;51.008;14.088;2023-09-30T07:50:23;9.23;;;2.40;;
73264;SDS011;61493;51.008;14.088;2023-09-30T07:52:48;6.68;;;1.88;;
73264;SDS011;61493;51.008;14.088;2023-09-30T07:55:14;6.45;;;1.70;;
73264;SDS011;61493;51.008;14.088;2023-09-30T07:57:40;6.70;;;2.15;;
73264;SDS011;61493;51.008;14.088;2023-09-30T08:00:06;7.90;;;2.20;;
73264;SDS011;61493;51.008;14.088;2023-09-30T08:02:39;7.20;;;2.13;;
73264;SDS011;61493;51.008;14.088;2023-09-30T08:05:05;7.25;;;3.28;;
73264;SDS011;61493;51.008;14.088;2023-09-30T08:07:31;6.93;;;1.90;;
73264;SDS011;61493;51.008;14.088;2023-09-30T08:09:56;10.35;;;2.83;;
73264;SDS011;61493;51.008;14.088;2023-09-30T08:12:21;8.45;;;2.10;;
73264;SDS011;61493;51.008;14.088;2023-09-30T08:14:46;6.50;;;2.15;;
73264;SDS011;61493;51.008;14.088;2023-09-30T08:17:11;6.07;;;2.17;;
73264;SDS011;61493;51.008;14.088;2023-09-30T08:19:37;8.47;;;2.23;;
73264;SDS011;61493;51.008;14.088;2023-09-30T08:22:02;6.55;;;2.45;;
73264;SDS011;61493;51.008;14.088;2023-09-30T08:24:30;7.65;;;2.42;;
73264;SDS011;61493;51.008;14.088;2023-09-30T08:26:56;7.82;;;2.03;;
73264;SDS011;61493;51.008;14.088;2023-09-30T08:29:21;6.70;;;2.08;;
73264;SDS011;61493;51.008;14.088;2023-09-30T08:31:46;11.05;;;3.13;;
73264;SDS011;61493;51.008;14.088;2023-09-30T08:34:12;8.67;;;1.77;;
73264;SDS011;61493;51.008;14.088;2023-09-30T08:36:39;11.35;;;3.40;;
73264;SDS011;61493;51.008;14.088;2023-09-30T08:39:04;5.20;;;1.70;;
73264;SDS011;61493;51.008;14.088;2023-09-30T08:41:33;6.67;;;2.00;;
73264;SDS011;61493;51.008;14.088;2023-09-30T08:43:59;8.73;;;2.17;;
73264;SDS011;61493;51.008;14.088;2023-09-30T08:46:25;7.68;;;2.28;;
73264;SDS011;61493;51.008;14.088;2023-09-30T08:48:50;11.05;;;2.45;;
73264;SDS011;61493;51.008;14.088;2023-09-30T08:51:16;6.57;;;2.05;;
73264;SDS011;61493;51.008;14.088;2023-09-30T08:53:41;8.60;;;1.93;;
73264;SDS011;61493;51.008;14.088;2023-09-30T08:56:07;7.43;;;2.05;;
73264;SDS011;61493;51.008;14.088;2023-09-30T08:58:35;6.95;;;1.58;;
73264;SDS011;61493;51.008;14.088;2023-09-30T09:01:00;5.65;;;1.98;;
73264;SDS011;61493;51.008;14.088;2023-09-30T09:03:27;5.95;;;1.98;;
73264;SDS011;61493;51.008;14.088;2023-09-30T09:05:56;6.85;;;1.80;;
73264;SDS011;61493;51.008;14.088;2023-09-30T09:08:22;10.68;;;2.47;;
73264;SDS011;61493;51.008;14.088;2023-09-30T09:10:58;4.38;;;1.45;;
73264;SDS011;61493;51.008;14.088;2023-09-30T09:13:24;7.70;;;1.70;;
73264;SDS011;61493;51.008;14.088;2023-09-30T09:15:50;4.57;;;1.48;;
73264;SDS011;61493;51.008;14.088;2023-09-30T09:18:33;8.52;;;2.08;;
73264;SDS011;61493;51.008;14.088;2023-09-30T09:21:11;5.70;;;1.77;;
73264;SDS011;61493;51.008;14.088;2023-09-30T09:23:44;7.10;;;1.80;;
73264;SDS011;61493;51.008;14.088;2023-09-30T09:28:35;6.20;;;1.95;;
73264;SDS011;61493;51.008;14.088;2023-09-30T09:31:01;4.90;;;1.95;;
73264;SDS011;61493;51.008;14.088;2023-09-30T09:33:34;4.68;;;1.45;;
73264;SDS011;61493;51.008;14.088;2023-09-30T09:36:00;7.15;;;2.10;;
73264;SDS011;61493;51.008;14.088;2023-09-30T09:38:25;6.07;;;1.90;;
73264;SDS011;61493;51.008;14.088;2023-09-30T09:40:50;5.37;;;1.90;;
73264;SDS011;61493;51.008;14.088;2023-09-30T09:43:16;7.87;;;1.63;;
73264;SDS011;61493;51.008;14.088;2023-09-30T09:45:41;7.72;;;1.70;;
73264;SDS011;61493;51.008;14.088;2023-09-30T09:48:08;8.20;;;1.98;;
73264;SDS011;61493;51.008;14.088;2023-09-30T09:50:34;5.60;;;1.83;;
73264;SDS011;61493;51.008;14.088;2023-09-30T09:53:01;6.18;;;1.67;;
73264;SDS011;61493;51.008;14.088;2023-09-30T09:55:27;5.75;;;1.60;;
73264;SDS011;61493;51.008;14.088;2023-09-30T09:57:53;8.50;;;2.30;;
73264;SDS011;61493;51.008;14.088;2023-09-30T10:00:20;5.55;;;1.70;;
73264;SDS011;61493;51.008;14.088;2023-09-30T10:02:46;7.22;;;2.13;;
73264;SDS011;61493;51.008;14.088;2023-09-30T10:05:12;4.55;;;1.65;;
73264;SDS011;61493;51.008;14.088;2023-09-30T10:07:38;4.28;;;1.25;;
73264;SDS011;61493;51.008;14.088;2023-09-30T10:10:05;6.25;;;1.58;;
73264;SDS011;61493;51.008;14.088;2023-09-30T10:12:38;7.38;;;1.48;;
73264;SDS011;61493;51.008;14.088;2023-09-30T10:18:03;5.15;;;1.60;;
73264;SDS011;61493;51.008;14.088;2023-09-30T10:20:29;4.60;;;1.52;;
73264;SDS011;61493;51.008;14.088;2023-09-30T10:25:38;5.65;;;1.98;;
73264;SDS011;61493;51.008;14.088;2023-09-30T10:31:14;6.03;;;1.80;;
73264;SDS011;61493;51.008;14.088;2023-09-30T10:36:28;4.68;;;1.60;;
73264;SDS011;61493;51.008;14.088;2023-09-30T10:38:53;4.90;;;1.60;;
73264;SDS011;61493;51.008;14.088;2023-09-30T10:42:04;7.93;;;1.70;;
73264;SDS011;61493;51.008;14.088;2023-09-30T10:46:48;4.63;;;1.33;;
73264;SDS011;61493;51.008;14.088;2023-09-30T10:51:51;5.30;;;2.10;;
73264;SDS011;61493;51.008;14.088;2023-09-30T10:54:32;4.82;;;1.38;;
73264;SDS011;61493;51.008;14.088;2023-09-30T10:56:58;6.85;;;1.80;;
73264;SDS011;61493;51.008;14.088;2023-09-30T10:59:27;4.47;;;1.42;;
73264;SDS011;61493;51.008;14.088;2023-09-30T11:01:55;5.38;;;1.48;;
73264;SDS011;61493;51.008;14.088;2023-09-30T11:04:20;4.10;;;1.30;;
73264;SDS011;61493;51.008;14.088;2023-09-30T11:06:46;5.72;;;1.75;;
73264;SDS011;61493;51.008;14.088;2023-09-30T11:09:15;4.75;;;1.80;;
73264;SDS011;61493;51.008;14.088;2023-09-30T11:11:42;6.13;;;2.08;;
73264;SDS011;61493;51.008;14.088;2023-09-30T11:16:54;3.83;;;1.30;;
73264;SDS011;61493;51.008;14.088;2023-09-30T11:19:20;6.35;;;1.75;;
73264;SDS011;61493;51.008;14.088;2023-09-30T11:21:46;6.40;;;1.63;;
73264;SDS011;61493;51.008;14.088;2023-09-30T11:24:11;6.85;;;1.60;;
73264;SDS011;61493;51.008;14.088;2023-09-30T11:26:37;5.45;;;2.00;;
73264;SDS011;61493;51.008;14.088;2023-09-30T11:29:06;6.38;;;1.92;;
73264;SDS011;61493;51.008;14.088;2023-09-30T11:31:31;5.32;;;1.73;;
73264;SDS011;61493;51.008;14.088;2023-09-30T11:33:59;8.23;;;2.08;;
73264;SDS011;61493;51.008;14.088;2023-09-30T11:36:29;4.28;;;1.38;;
73264;SDS011;61493;51.008;14.088;2023-09-30T11:38:55;4.35;;;1.30;;
73264;SDS011;61493;51.008;14.088;2023-09-30T11:41:20;5.73;;;1.53;;
73264;SDS011;61493;51.008;14.088;2023-09-30T11:44:03;5.60;;;1.60;;
73264;SDS011;61493;51.008;14.088;2023-09-30T11:46:33;6.18;;;1.77;;
73264;SDS011;61493;51.008;14.088;2023-09-30T11:49:12;3.55;;;1.48;;
73264;SDS011;61493;51.008;14.088;2023-09-30T11:51:44;4.70;;;1.80;;
73264;SDS011;61493;51.008;14.088;2023-09-30T11:54:11;3.25;;;1.30;;
73264;SDS011;61493;51.008;14.088;2023-09-30T11:56:36;8.75;;;1.75;;
73264;SDS011;61493;51.008;14.088;2023-09-30T11:59:02;5.67;;;1.60;;
73264;SDS011;61493;51.008;14.088;2023-09-30T12:01:27;4.53;;;1.55;;
73264;SDS011;61493;51.008;14.088;2023-09-30T12:03:55;4.13;;;1.65;;
73264;SDS011;61493;51.008;14.088;2023-09-30T12:06:21;3.13;;;1.30;;
73264;SDS011;61493;51.008;14.088;2023-09-30T12:08:46;6.67;;;1.60;;
73264;SDS011;61493;51.008;14.088;2023-09-30T12:11:11;6.40;;;1.60;;
73264;SDS011;61493;51.008;14.088;2023-09-30T12:13:41;6.50;;;1.60;;
73264;SDS011;61493;51.008;14.088;2023-09-30T12:16:06;4.25;;;1.25;;
73264;SDS011;61493;51.008;14.088;2023-09-30T12:18:32;4.77;;;1.57;;
73264;SDS011;61493;51.008;14.088;2023-09-30T12:20:57;3.97;;;1.20;;
73264;SDS011;61493;51.008;14.088;2023-09-30T12:23:22;4.27;;;1.30;;
73264;SDS011;61493;51.008;14.088;2023-09-30T12:25:47;6.27;;;1.40;;
73264;SDS011;61493;51.008;14.088;2023-09-30T12:28:13;3.47;;;1.23;;
73264;SDS011;61493;51.008;14.088;2023-09-30T12:30:42;5.10;;;1.35;;
73264;SDS011;61493;51.008;14.088;2023-09-30T12:33:08;6.80;;;1.40;;
73264;SDS011;61493;51.008;14.088;2023-09-30T12:35:33;4.87;;;1.30;;
73264;SDS011;61493;51.008;14.088;2023-09-30T12:37:58;5.07;;;1.57;;
73264;SDS011;61493;51.008;14.088;2023-09-30T12:40:24;5.63;;;1.38;;
73264;SDS011;61493;51.008;14.088;2023-09-30T12:42:50;4.57;;;1.83;;
73264;SDS011;61493;51.008;14.088;2023-09-30T12:45:15;4.57;;;1.50;;
73264;SDS011;61493;51.008;14.088;2023-09-30T12:47:41;7.72;;;1.58;;
73264;SDS011;61493;51.008;14.088;2023-09-30T12:50:07;6.68;;;1.60;;
73264;SDS011;61493;51.008;14.088;2023-09-30T12:52:34;9.88;;;1.80;;
73264;SDS011;61493;51.008;14.088;2023-09-30T12:54:59;6.75;;;1.50;;
73264;SDS011;61493;51.008;14.088;2023-09-30T12:57:24;5.53;;;1.63;;
73264;SDS011;61493;51.008;14.088;2023-09-30T12:59:49;7.60;;;1.87;;
73264;SDS011;61493;51.008;14.088;2023-09-30T13:02:15;2.90;;;1.47;;
73264;SDS011;61493;51.008;14.088;2023-09-30T13:04:40;5.00;;;1.80;;
73264;SDS011;61493;51.008;14.088;2023-09-30T13:07:11;6.05;;;1.52;;
73264;SDS011;61493;51.008;14.088;2023-09-30T13:09:40;8.10;;;1.40;;
73264;SDS011;61493;51.008;14.088;2023-09-30T13:12:05;4.00;;;1.55;;
73264;SDS011;61493;51.008;14.088;2023-09-30T13:14:31;5.80;;;1.23;;
73264;SDS011;61493;51.008;14.088;2023-09-30T13:16:56;6.17;;;1.37;;
73264;SDS011;61493;51.008;14.088;2023-09-30T13:19:21;5.95;;;1.38;;
73264;SDS011;61493;51.008;14.088;2023-09-30T13:21:47;6.28;;;1.27;;
73264;SDS011;61493;51.008;14.088;2023-09-30T13:24:13;7.57;;;1.83;;
73264;SDS011;61493;51.008;14.088;2023-09-30T13:26:39;7.38;;;2.40;;
73264;SDS011;61493;51.008;14.088;2023-09-30T13:29:04;5.73;;;1.93;;
73264;SDS011;61493;51.008;14.088;2023-09-30T13:31:30;5.75;;;1.52;;
73264;SDS011;61493;51.008;14.088;2023-09-30T13:33:55;3.85;;;1.42;;
73264;SDS011;61493;51.008;14.088;2023-09-30T13:36:20;3.10;;;1.10;;
73264;SDS011;61493;51.008;14.088;2023-09-30T13:38:45;5.03;;;1.70;;
73264;SDS011;61493;51.008;14.088;2023-09-30T13:41:11;7.57;;;3.33;;
73264;SDS011;61493;51.008;14.088;2023-09-30T13:43:36;4.82;;;1.40;;
73264;SDS011;61493;51.008;14.088;2023-09-30T13:46:04;6.50;;;1.53;;
73264;SDS011;61493;51.008;14.088;2023-09-30T13:48:32;6.05;;;1.20;;
73264;SDS011;61493;51.008;14.088;2023-09-30T13:51:03;5.20;;;1.42;;
73264;SDS011;61493;51.008;14.088;2023-09-30T13:53:28;6.68;;;1.70;;
73264;SDS011;61493;51.008;14.088;2023-09-30T13:55:53;4.07;;;1.20;;
73264;SDS011;61493;51.008;14.088;2023-09-30T13:58:19;3.37;;;1.07;;
73264;SDS011;61493;51.008;14.088;2023-09-30T14:00:47;6.00;;;1.67;;
73264;SDS011;61493;51.008;14.088;2023-09-30T14:03:17;5.60;;;1.73;;
73264;SDS011;61493;51.008;14.088;2023-09-30T14:05:43;4.88;;;1.58;;
73264;SDS011;61493;51.008;14.088;2023-09-30T14:08:10;6.93;;;2.10;;
73264;SDS011;61493;51.008;14.088;2023-09-30T14:10:35;6.35;;;1.83;;
73264;SDS011;61493;51.008;14.088;2023-09-30T14:13:01;3.63;;;1.33;;
73264;SDS011;61493;51.008;14.088;2023-09-30T14:15:26;2.53;;;0.80;;
73264;SDS011;61493;51.008;14.088;2023-09-30T14:17:53;8.00;;;1.70;;
73264;SDS011;61493;51.008;14.088;2023-09-30T14:20:18;3.75;;;1.10;;
73264;SDS011;61493;51.008;14.088;2023-09-30T14:22:43;4.50;;;1.35;;
73264;SDS011;61493;51.008;14.088;2023-09-30T14:25:09;7.03;;;1.57;;
73264;SDS011;61493;51.008;14.088;2023-09-30T14:27:34;9.20;;;1.43;;
73264;SDS011;61493;51.008;14.088;2023-09-30T14:29:59;4.20;;;0.93;;
73264;SDS011;61493;51.008;14.088;2023-09-30T14:32:25;4.70;;;1.20;;
73264;SDS011;61493;51.008;14.088;2023-09-30T14:34:50;6.80;;;1.38;;
73264;SDS011;61493;51.008;14.088;2023-09-30T14:37:16;8.52;;;1.10;;
73264;SDS011;61493;51.008;14.088;2023-09-30T14:39:42;6.63;;;1.75;;
73264;SDS011;61493;51.008;14.088;2023-09-30T14:42:07;6.95;;;2.25;;
73264;SDS011;61493;51.008;14.088;2023-09-30T14:44:32;4.13;;;1.40;;
73264;SDS011;61493;51.008;14.088;2023-09-30T14:46:58;4.05;;;0.90;;
73264;SDS011;61493;51.008;14.088;2023-09-30T14:49:23;3.38;;;1.00;;
73264;SDS011;61493;51.008;14.088;2023-09-30T14:51:48;6.17;;;1.23;;
73264;SDS011;61493;51.008;14.088;2023-09-30T14:54:13;4.60;;;1.95;;